Time;durP1;ratioP1;P1;durP2;ratioP2;P2;SDS_P1;SDS_P2;PMS_P1;PMS_P2;Temp;Humidity;BMP_temperature;BMP_pressure;BME280_temperature;BME280_humidity;BME280_pressure;Samples;Min_cycle;Max_cycle;Signal;HPM_P1;HPM_P2
2021/08/17 04:49:15;;;;;;;;;79.00;72.25;;;;;24.90;76.17;101203.44;6010497;23;10409;-71
2021/08/17 04:51:43;;;;;;;;;81.25;76.00;;;;;25.00;75.75;101199.75;4955028;28;10207;-71
2021/08/17 04:54:10;;;;;;;;;84.00;76.25;;;;;25.07;75.18;101202.50;4955639;28;10701;-71
2021/08/17 04:57:06;;;;;;;;;107.00;100.00;;;;;25.20;76.14;101202.81;4954252;28;10450;-71
2021/08/17 04:59:34;;;;;;;;;98.25;93.00;;;;;25.23;76.51;101201.97;4951571;28;11571;-72
2021/08/17 05:02:03;;;;;;;;;104.50;98.00;;;;;25.26;76.76;101198.31;4950209;28;11210;-72
2021/08/17 05:04:31;;;;;;;;;111.25;109.50;;;;;25.26;77.59;101197.50;4933862;28;11056;-72
2021/08/17 05:07:07;;;;;;;;;132.25;121.50;;;;;25.38;76.42;101196.94;4955728;28;11569;-72
2021/08/17 05:09:36;;;;;;;;;104.25;101.50;;;;;25.48;75.97;101207.38;4953881;28;11727;-70
2021/08/17 05:12:31;;;;;;;;;85.75;74.25;;;;;25.55;75.56;101206.50;4942826;28;11582;-71
2021/08/17 05:15:27;;;;;;;;;72.75;65.00;;;;;25.45;75.65;101202.53;4954718;28;9675;-71
2021/08/17 05:18:22;;;;;;;;;74.00;56.67;;;;;25.59;74.88;101199.56;4960072;28;9573;-71
2021/08/17 05:21:18;;;;;;;;;67.25;52.25;;;;;25.80;73.96;101207.03;4939738;28;10031;-71
2021/08/17 05:24:05;;;;;;;;;58.25;47.75;;;;;25.83;74.08;101206.16;4936207;28;8866;-73
2021/08/17 05:27:01;;;;;;;;;46.50;39.75;;;;;25.99;73.24;101208.41;4940916;28;8977;-72
2021/08/17 05:29:29;;;;;;;;;50.25;40.25;;;;;26.00;73.47;101204.38;4950193;28;8914;-71
2021/08/17 05:32:24;;;;;;;;;47.00;40.25;;;;;26.07;73.71;101204.28;4955044;28;8866;-73
2021/08/17 05:34:52;;;;;;;;;45.50;37.25;;;;;26.10;73.10;101206.25;4955372;28;8866;-73
2021/08/17 05:37:47;;;;;;;;;42.50;36.25;;;;;26.23;72.00;101215.78;4954641;28;8972;-73
2021/08/17 05:40:20;;;;;;;;;48.50;39.25;;;;;26.27;72.01;101210.88;4954861;28;8851;-73
2021/08/17 05:42:47;;;;;;;;;36.80;33.40;;;;;26.30;71.97;101215.69;4954860;28;8945;-73
2021/08/17 05:45:43;;;;;;;;;41.20;35.60;;;;;26.57;71.03;101214.91;4954263;28;8885;-73
2021/08/17 05:48:11;;;;;;;;;40.20;35.20;;;;;26.62;70.75;101214.44;4955143;28;8855;-72
2021/08/17 05:51:22;;;;;;;;;34.60;32.20;;;;;26.82;69.63;101220.19;4944085;28;8842;-73
2021/08/17 05:53:50;;;;;;;;;35.80;32.40;;;;;26.80;69.52;101212.13;4938398;28;8854;-72
2021/08/17 05:56:45;;;;;;;;;36.20;33.00;;;;;26.99;68.93;101215.44;4941776;28;8979;-73
2021/08/17 05:59:41;;;;;;;;;34.40;32.00;;;;;27.23;68.23;101211.41;4953866;28;8885;-73
2021/08/17 06:02:27;;;;;;;;;37.00;32.80;;;;;27.32;68.21;101208.81;4953714;28;8858;-73
2021/08/17 06:04:59;;;;;;;;;39.60;32.60;;;;;27.47;67.72;101200.81;4954860;28;8858;-72
2021/08/17 06:07:31;;;;;;;;;37.40;33.40;;;;;27.61;66.45;101208.28;4954714;28;8885;-72
2021/08/17 06:09:59;;;;;;;;;33.60;31.60;;;;;27.83;66.33;101214.34;4937936;28;8928;-72
2021/08/17 06:12:39;;;;;;;;;22.40;22.40;;;;;27.89;65.68;101207.69;4954507;28;8918;-71
2021/08/17 06:15:09;;;;;;;;;32.80;31.20;;;;;27.97;65.96;101209.16;4937858;28;8855;-72
2021/08/17 06:17:37;;;;;;;;;29.60;29.00;;;;;28.06;64.51;101219.13;4955022;28;8862;-71
2021/08/17 06:20:33;;;;;;;;;30.80;29.80;;;;;28.18;64.59;101210.75;4941640;28;8850;-71
2021/08/17 06:23:28;;;;;;;;;35.20;31.40;;;;;28.37;64.62;101209.13;4940675;28;8861;-71
2021/08/17 06:25:58;;;;;;;;;27.40;25.80;;;;;28.53;63.87;101216.91;4954118;28;8863;-71
2021/08/17 06:28:54;;;;;;;;;23.60;23.60;;;;;28.72;63.05;101220.91;4953456;28;9600;-71
2021/08/17 06:31:49;;;;;;;;;21.80;21.80;;;;;28.86;62.07;101214.06;4953446;29;8842;-72
2021/08/17 06:34:17;;;;;;;;;18.60;18.60;;;;;28.85;61.10;101213.28;4954609;29;8855;-73
2021/08/17 06:37:12;;;;;;;;;21.80;18.60;;;;;29.02;60.82;101217.72;4953768;29;8870;-72
2021/08/17 06:40:09;;;;;;;;;15.20;15.20;;;;;28.98;59.23;101214.16;4953573;29;8922;-71
2021/08/17 06:43:04;;;;;;;;;13.40;13.40;;;;;29.11;59.90;101216.31;4954139;28;8851;-72
2021/08/17 06:46:00;;;;;;;;;16.80;16.80;;;;;29.35;59.63;101217.69;4953175;29;8924;-71
2021/08/17 06:48:56;;;;;;;;;19.60;19.40;;;;;29.51;57.63;101217.66;4953263;29;8850;-71
2021/08/17 06:51:51;;;;;;;;;16.00;16.00;;;;;29.59;57.80;101221.13;4953189;29;8855;-72
2021/08/17 06:54:48;;;;;;;;;20.80;20.00;;;;;29.63;57.10;101219.78;4953744;28;8908;-72
2021/08/17 06:57:30;;;;;;;;;16.40;16.40;;;;;29.75;56.69;101215.38;4957862;28;8858;-72
2021/08/17 07:00:26;;;;;;;;;19.20;19.20;;;;;29.77;57.17;101217.78;4943912;28;8858;-72
2021/08/17 07:03:21;;;;;;;;;15.00;15.00;;;;;29.76;55.49;101216.19;4957008;28;8893;-72
2021/08/17 07:06:17;;;;;;;;;14.00;14.00;;;;;30.02;55.05;101214.19;4956688;28;8861;-72
2021/08/17 07:09:04;;;;;;;;;15.80;15.80;;;;;30.20;54.88;101216.53;4958277;28;8866;-72
2021/08/17 07:11:59;;;;;;;;;18.00;17.60;;;;;30.46;54.18;101223.88;4957731;28;8846;-72
2021/08/17 07:14:55;;;;;;;;;15.20;14.80;;;;;30.29;53.94;101220.31;4955883;28;8881;-71
2021/08/17 07:17:22;;;;;;;;;14.60;14.60;;;;;30.50;52.99;101220.88;4954691;28;8886;-72
2021/08/17 07:20:18;;;;;;;;;13.40;13.40;;;;;30.65;52.87;101219.97;4931856;28;8933;-71
2021/08/17 07:23:14;;;;;;;;;13.00;13.00;;;;;30.68;50.90;101221.97;4943564;28;8843;-73
2021/08/17 07:25:42;;;;;;;;;12.80;12.80;;;;;30.67;51.53;101220.38;4956175;28;8873;-72
2021/08/17 07:28:23;;;;;;;;;15.40;15.40;;;;;30.98;51.21;101220.56;4957991;28;8854;-72
2021/08/17 07:31:19;;;;;;;;;13.20;13.20;;;;;31.25;51.20;101230.69;4956914;28;8858;-72
2021/08/17 07:34:15;;;;;;;;;15.60;15.60;;;;;31.11;50.55;101229.06;4956844;28;8945;-72
2021/08/17 07:37:10;;;;;;;;;13.00;13.00;;;;;31.05;50.95;101228.06;4950295;28;8857;-72
2021/08/17 07:39:51;;;;;;;;;14.00;14.00;;;;;30.97;52.16;101230.34;4938180;29;8860;-76
2021/08/17 07:42:19;;;;;;;;;12.60;11.80;;;;;31.10;51.08;101218.13;4945219;29;8873;-76
2021/08/17 07:45:19;;;;;;;;;13.60;13.60;;;;;31.23;50.54;101228.28;4935021;29;8991;-74
2021/08/17 07:48:01;;;;;;;;;21.80;20.80;;;;;31.37;50.94;101224.13;4950598;28;8847;-74
2021/08/17 07:50:56;;;;;;;;;13.00;12.00;;;;;31.16;50.27;101217.06;4956436;28;8981;-73
2021/08/17 07:53:52;;;;;;;;;10.80;10.80;;;;;30.87;50.31;101217.25;4956872;28;8881;-75
2021/08/17 07:56:40;;;;;;;;;16.00;16.00;;;;;31.17;51.29;101220.72;4956781;28;8945;-75
2021/08/17 07:59:10;;;;;;;;;11.80;11.80;;;;;31.26;50.49;101218.78;4956317;28;8861;-76
2021/08/17 08:01:51;;;;;;;;;14.80;14.80;;;;;31.49;49.96;101211.84;4957030;28;8863;-76
2021/08/17 08:04:47;;;;;;;;;12.60;12.60;;;;;31.50;50.39;101219.16;4956018;28;8862;-75
2021/08/17 08:07:42;;;;;;;;;17.60;17.60;;;;;31.65;50.12;101208.00;4955430;28;9006;-76
2021/08/17 08:10:38;;;;;;;;;10.60;10.60;;;;;32.03;45.24;101207.00;4955905;28;8847;-73
2021/08/17 08:13:34;;;;;;;;;8.80;8.80;;;;;32.07;45.85;101201.97;4955600;28;8869;-74
2021/08/17 08:16:29;;;;;;;;;9.40;9.40;;;;;32.13;45.45;101190.69;4954144;28;8913;-73
2021/08/17 08:19:25;;;;;;;;;23.20;23.20;;;;;31.62;50.22;101191.78;4954839;28;8839;-74
2021/08/17 08:22:04;;;;;;;;;13.20;13.20;;;;;31.37;49.78;101194.75;4946612;28;8839;-73
2021/08/17 08:24:59;;;;;;;;;18.80;18.80;;;;;31.50;49.93;101189.75;4938114;28;8945;-72
2021/08/17 08:27:55;;;;;;;;;19.40;19.20;;;;;31.13;51.35;101178.00;4955111;28;8866;-74
2021/08/17 08:30:50;;;;;;;;;13.00;13.00;;;;;31.27;50.21;101177.50;4955430;28;8984;-74
2021/08/17 08:33:19;;;;;;;;;12.00;12.00;;;;;31.57;49.45;101183.00;4956470;28;8859;-75
2021/08/17 08:36:14;;;;;;;;;12.60;12.60;;;;;31.54;49.20;101179.00;4944090;28;8843;-72
2021/08/17 08:39:10;;;;;;;;;10.80;10.80;;;;;31.21;49.00;101179.34;4953308;28;8857;-73
2021/08/17 08:42:06;;;;;;;;;9.40;9.40;;;;;31.58;47.25;101176.81;4955424;28;9633;-73
2021/08/17 08:45:03;;;;;;;;;10.00;10.00;;;;;32.15;44.92;101177.53;4955214;28;8831;-74
2021/08/17 08:47:46;;;;;;;;;6.60;6.60;;;;;32.59;43.33;101171.69;4956600;28;9621;-74
2021/08/17 08:50:15;;;;;;;;;7.00;7.00;;;;;32.83;42.07;101169.03;4955615;28;8855;-74
2021/08/17 08:53:13;;;;;;;;;9.00;9.00;;;;;32.59;42.40;101160.25;4954997;28;8851;-74
2021/08/17 08:56:10;;;;;;;;;10.00;10.00;;;;;32.69;41.68;101164.72;4956226;28;8930;-75
2021/08/17 08:59:06;;;;;;;;;9.20;9.20;;;;;33.04;43.15;101162.41;4954450;28;8858;-74
2021/08/17 09:02:14;;;;;;;;;11.40;11.40;;;;;32.08;46.07;101166.34;4948905;28;8977;-75
2021/08/17 09:05:10;;;;;;;;;12.40;12.40;;;;;32.34;46.80;101161.25;4954724;28;8831;-74
2021/08/17 09:08:04;;;;;;;;;12.80;12.80;;;;;32.06;47.38;101166.84;4922940;29;8860;-73
2021/08/17 09:11:21;;;;;;;;;12.20;12.20;;;;;31.67;47.68;101168.31;4938771;28;8850;-74
2021/08/17 09:14:30;;;;;;;;;13.40;13.40;;;;;31.68;48.38;101158.47;4953780;28;8883;-75
2021/08/17 09:17:26;;;;;;;;;11.40;11.40;;;;;31.80;47.66;101151.09;4954288;28;8866;-73
2021/08/17 09:20:37;;;;;;;;;10.40;10.40;;;;;31.97;47.42;101152.47;4950184;28;8827;-75
2021/08/17 09:23:33;;;;;;;;;11.20;10.80;;;;;31.53;47.51;101160.28;4934235;29;8844;-75
2021/08/17 09:26:30;;;;;;;;;10.20;10.20;;;;;31.52;47.24;101155.81;4950864;28;8986;-75
2021/08/17 09:29:32;;;;;;;;;7.20;7.20;;;;;31.47;47.56;101153.56;4941622;28;9064;-76
2021/08/17 09:32:28;;;;;;;;;11.40;11.40;;;;;31.40;48.54;101148.09;4954437;28;8866;-74
2021/08/17 09:35:25;;;;;;;;;12.40;12.40;;;;;31.11;47.16;101149.09;4953793;28;8850;-73
2021/08/17 09:38:21;;;;;;;;;14.20;14.20;;;;;31.20;48.37;101139.81;4953691;28;8866;-74
2021/08/17 09:41:16;;;;;;;;;11.60;11.60;;;;;31.34;48.71;101141.38;4955232;28;8850;-75
2021/08/17 09:44:12;;;;;;;;;12.20;12.20;;;;;31.42;48.61;101139.84;4953866;28;8889;-73
2021/08/17 09:47:08;;;;;;;;;11.20;11.20;;;;;31.91;47.55;101131.47;4940660;28;8843;-73
2021/08/17 09:50:28;;;;;;;;;11.00;11.00;;;;;32.56;45.93;101144.00;4954463;28;8882;-73
2021/08/17 09:53:24;;;;;;;;;11.00;11.00;;;;;31.88;45.17;101137.31;4953990;28;8866;-74
2021/08/17 09:56:26;;;;;;;;;12.80;12.80;;;;;32.44;46.22;101131.41;4952699;28;8901;-75
2021/08/17 09:59:25;;;;;;;;;11.00;11.00;;;;;32.80;45.60;101132.75;4953175;28;8873;-74
2021/08/17 10:02:21;;;;;;;;;12.80;12.00;;;;;33.06;44.06;101125.50;4954154;28;8896;-76
2021/08/17 10:05:16;;;;;;;;;11.80;11.80;;;;;32.90;43.85;101120.88;4941116;28;8870;-74
2021/08/17 10:08:16;;;;;;;;;10.80;10.80;;;;;33.09;43.09;101129.47;4953822;28;9600;-75
2021/08/17 10:11:13;;;;;;;;;12.20;12.20;;;;;33.14;42.26;101121.03;4953928;28;8877;-75
2021/08/17 10:14:13;;;;;;;;;8.40;8.40;;;;;33.53;42.90;101117.69;4953333;28;8879;-75
2021/08/17 10:17:08;;;;;;;;;12.40;12.40;;;;;33.46;42.07;101111.00;4948360;28;8884;-74
2021/08/17 10:20:05;;;;;;;;;11.40;11.40;;;;;33.53;41.22;101114.81;4922679;28;8872;-73
2021/08/17 10:22:38;;;;;;;;;11.80;11.80;;;;;33.30;41.75;101105.59;4954171;28;8866;-71
2021/08/17 10:25:49;;;;;;;;;9.80;9.80;;;;;32.94;42.79;101105.59;4953604;28;9640;-73
2021/08/17 10:28:44;;;;;;;;;11.40;11.40;;;;;33.35;42.04;101110.66;4933896;29;8933;-73
2021/08/17 10:31:49;;;;;;;;;10.80;10.20;;;;;33.65;40.94;101116.69;4934230;29;8864;-74
2021/08/17 10:34:44;;;;;;;;;9.20;9.20;;;;;33.92;41.64;101113.78;4945999;29;8852;-74
2021/08/17 10:37:40;;;;;;;;;9.40;9.40;;;;;34.23;40.08;101101.22;4934772;29;9795;-74
2021/08/17 10:40:51;;;;;;;;;10.40;10.40;;;;;34.01;39.68;101096.53;4953241;29;8862;-74
2021/08/17 10:43:49;;;;;;;;;11.20;11.20;;;;;34.39;40.71;101092.19;4953282;29;8893;-74
2021/08/17 10:46:18;;;;;;;;;11.00;11.00;;;;;34.69;39.33;101096.03;4954265;29;8961;-75
2021/08/17 10:49:33;;;;;;;;;9.40;9.40;;;;;34.27;39.71;101090.34;4952513;29;8894;-74
2021/08/17 10:52:32;;;;;;;;;11.00;11.00;;;;;34.58;39.38;101092.91;4952680;29;8984;-74
2021/08/17 10:55:37;;;;;;;;;11.60;11.60;;;;;34.42;39.47;101093.31;4953281;29;8854;-72
2021/08/17 10:58:41;;;;;;;;;10.40;10.40;;;;;33.99;40.27;101095.44;4952647;29;8866;-76
2021/08/17 11:01:10;;;;;;;;;11.80;11.80;;;;;34.00;41.08;101091.28;4937400;28;8940;-73
2021/08/17 11:04:18;;;;;;;;;10.40;10.40;;;;;34.05;40.69;101090.63;4953674;29;8850;-74
2021/08/17 11:07:26;;;;;;;;;12.80;12.80;;;;;33.80;41.44;101088.13;4953060;28;8859;-74
2021/08/17 11:10:32;;;;;;;;;13.40;13.40;;;;;34.22;41.00;101091.03;4952936;29;8870;-75
2021/08/17 11:13:28;;;;;;;;;16.00;16.00;;;;;34.30;40.71;101083.66;4953555;29;8869;-74
2021/08/17 11:16:24;;;;;;;;;12.20;12.20;;;;;34.17;40.04;101086.72;4952468;29;8875;-74
2021/08/17 11:19:26;;;;;;;;;11.40;11.40;;;;;34.05;40.09;101078.34;4953066;29;8846;-72
2021/08/17 11:22:24;;;;;;;;;10.00;10.00;;;;;34.04;40.97;101079.63;4953995;29;8871;-74
2021/08/17 11:24:55;;;;;;;;;15.60;15.60;;;;;34.27;41.13;101071.03;4950549;29;8866;-74
2021/08/17 11:27:51;;;;;;;;;13.00;13.00;;;;;34.48;39.54;101080.69;4953067;28;8874;-73
2021/08/17 11:30:47;;;;;;;;;11.00;11.00;;;;;34.86;39.32;101067.66;4953465;29;8961;-73
2021/08/17 11:33:42;;;;;;;;;10.60;10.00;;;;;34.74;39.21;101072.38;4952628;29;8842;-76
2021/08/17 11:36:38;;;;;;;;;11.20;10.60;;;;;35.13;38.48;101078.16;4952698;29;8873;-75
2021/08/17 11:39:38;;;;;;;;;12.20;12.20;;;;;35.19;38.76;101073.28;4940884;29;8872;-74
2021/08/17 11:42:37;;;;;;;;;12.80;12.80;;;;;35.54;38.16;101067.69;4953529;28;8863;-74
2021/08/17 11:45:18;;;;;;;;;11.00;11.00;;;;;35.26;38.80;101051.97;4949568;28;8879;-75
2021/08/17 11:48:22;;;;;;;;;13.60;13.60;;;;;35.66;38.28;101060.06;4939775;28;9791;-73
2021/08/17 11:51:24;;;;;;;;;11.60;11.60;;;;;35.31;39.00;101060.72;4948208;28;8922;-74
2021/08/17 11:54:21;;;;;;;;;12.20;11.40;;;;;35.19;38.85;101058.13;4950036;29;8892;-74
2021/08/17 11:57:21;;;;;;;;;10.00;10.00;;;;;34.87;37.91;101060.59;4950097;29;8869;-73
2021/08/17 12:00:22;;;;;;;;;12.80;12.80;;;;;34.79;39.39;101045.84;4931012;28;8990;-75
2021/08/17 12:03:24;;;;;;;;;11.80;11.80;;;;;35.14;38.92;101047.34;4941289;28;9592;-75
2021/08/17 12:06:20;;;;;;;;;13.60;13.60;;;;;34.74;40.24;101032.16;4942148;28;8870;-72
2021/08/17 12:08:48;;;;;;;;;10.80;10.80;;;;;34.69;39.23;101038.59;4948547;28;8870;-75
2021/08/17 12:11:22;;;;;;;;;12.80;12.80;;;;;34.19;40.23;101032.50;4925397;28;8932;-74
2021/08/17 12:14:04;;;;;;;;;12.00;12.00;;;;;34.28;40.15;101037.41;4941662;28;8904;-73
2021/08/17 12:16:32;;;;;;;;;11.20;11.20;;;;;34.79;38.70;101028.59;4929775;28;8861;-74
2021/08/17 12:19:28;;;;;;;;;13.20;13.20;;;;;34.95;38.40;101032.31;4944121;28;8864;-72
2021/08/17 12:22:27;;;;;;;;;11.00;11.00;;;;;35.45;38.38;101032.50;4944142;28;8845;-73
2021/08/17 12:25:22;;;;;;;;;12.20;12.20;;;;;35.48;37.70;101028.63;4944661;28;9737;-74
2021/08/17 12:28:29;;;;;;;;;11.40;11.40;;;;;35.40;37.07;101016.72;4938248;28;8850;-75
2021/08/17 12:31:17;;;;;;;;;11.40;11.40;;;;;36.03;37.03;101022.97;4929577;28;8866;-76
2021/08/17 12:33:59;;;;;;;;;10.40;10.40;;;;;36.39;35.44;101015.94;4945883;28;8863;-74
2021/08/17 12:36:54;;;;;;;;;12.20;12.20;;;;;36.92;35.06;101019.75;4950107;28;9697;-75
2021/08/17 12:39:55;;;;;;;;;10.00;10.00;;;;;36.77;34.52;101010.38;4952477;28;8892;-73
2021/08/17 12:42:24;;;;;;;;;9.20;9.20;;;;;37.17;34.03;101027.59;4953942;28;8883;-73
2021/08/17 12:45:32;;;;;;;;;13.20;13.20;;;;;36.86;34.24;101016.00;4953320;28;8850;-75
2021/08/17 12:48:20;;;;;;;;;11.40;11.40;;;;;36.65;36.11;101006.56;4955774;28;8965;-74
2021/08/17 12:50:58;;;;;;;;;13.20;13.20;;;;;35.72;37.48;101011.22;4956068;28;8858;-74
2021/08/17 12:53:27;;;;;;;;;12.80;12.80;;;;;35.44;37.68;101019.41;4938346;28;8892;-75
2021/08/17 12:55:55;;;;;;;;;13.00;12.40;;;;;35.76;37.09;101009.75;4956127;28;8957;-76
2021/08/17 12:58:22;;;;;;;;;10.20;10.20;;;;;35.78;37.58;101003.47;4943961;29;8899;-75
2021/08/17 13:00:52;;;;;;;;;12.00;12.00;;;;;35.50;36.67;101008.78;4936713;29;8860;-75
2021/08/17 13:03:21;;;;;;;;;11.80;11.80;;;;;36.28;36.60;101001.38;4936930;29;8948;-75
2021/08/17 13:05:50;;;;;;;;;14.20;14.20;;;;;36.58;35.20;101007.00;4936693;29;8880;-75
2021/08/17 13:08:18;;;;;;;;;12.00;12.00;;;;;37.10;35.01;100998.44;4944521;28;8842;-75
2021/08/17 13:11:07;;;;;;;;;11.80;11.80;;;;;37.01;33.85;101000.19;4963779;28;8868;-75
2021/08/17 13:13:35;;;;;;;;;10.00;10.00;;;;;37.14;33.01;100996.91;4940129;28;8873;-74
2021/08/17 13:16:15;;;;;;;;;13.60;13.60;;;;;36.81;34.66;100994.47;4935955;28;8939;-73
2021/08/17 13:18:45;;;;;;;;;13.20;13.20;;;;;36.42;34.91;100989.03;4926240;29;8943;-73
2021/08/17 13:21:22;;;;;;;;;13.20;13.20;;;;;36.74;34.09;100986.25;4936760;28;8897;-75
2021/08/17 13:24:17;;;;;;;;;18.00;18.00;;;;;36.94;34.16;100989.09;4954279;28;9718;-74
2021/08/17 13:27:13;;;;;;;;;14.40;14.00;;;;;36.85;35.53;100989.28;4951620;28;8838;-76
2021/08/17 13:29:42;;;;;;;;;12.80;12.80;;;;;36.41;36.56;100987.41;4955414;28;8851;-76
2021/08/17 13:32:38;;;;;;;;;13.60;13.60;;;;;36.27;38.64;100976.75;4954667;28;8886;-73
2021/08/17 13:35:37;;;;;;;;;11.80;11.80;;;;;35.78;40.89;100978.38;4940403;28;9557;-77
2021/08/17 13:38:32;;;;;;;;;11.80;11.80;;;;;35.24;41.25;100985.56;4936212;28;8887;-76
2021/08/17 13:41:01;;;;;;;;;14.40;14.40;;;;;34.72;43.49;100980.16;4955504;28;8894;-77
2021/08/17 13:43:58;;;;;;;;;13.60;13.60;;;;;34.47;40.81;100969.19;4954113;28;8858;-74
2021/08/17 13:46:54;;;;;;;;;12.20;12.20;;;;;34.10;41.74;100974.38;4954221;28;8850;-76
2021/08/17 13:49:23;;;;;;;;;11.80;11.80;;;;;33.80;42.59;100968.47;4954912;28;8839;-75
2021/08/17 13:52:19;;;;;;;;;14.60;14.60;;;;;33.82;42.88;100963.06;4954996;28;8839;-75
2021/08/17 13:54:47;;;;;;;;;14.20;14.20;;;;;34.23;41.94;100957.72;4955026;28;8878;-75
2021/08/17 13:57:43;;;;;;;;;14.20;14.20;;;;;33.60;43.05;100957.59;4954511;28;8877;-77
2021/08/17 14:00:41;;;;;;;;;5.00;5.00;;;;;33.50;44.40;100944.53;4953235;28;8873;-75
2021/08/17 14:03:09;;;;;;;;;15.00;15.00;;;;;33.90;44.45;100957.78;4953795;28;9663;-76
2021/08/17 14:06:05;;;;;;;;;13.00;13.00;;;;;34.34;42.34;100954.28;4954311;28;8866;-75
2021/08/17 14:09:02;;;;;;;;;14.20;14.20;;;;;34.40;40.67;100953.13;4953047;28;8827;-74
2021/08/17 14:11:58;;;;;;;;;14.40;14.40;;;;;34.69;39.21;100949.53;4953916;28;8869;-74
2021/08/17 14:14:59;;;;;;;;;12.40;12.40;;;;;34.88;39.80;100953.03;4954882;28;8855;-76
2021/08/17 14:17:55;;;;;;;;;12.00;12.00;;;;;35.17;38.87;100951.47;4954663;28;8866;-76
2021/08/17 14:20:50;;;;;;;;;11.80;11.80;;;;;35.24;38.41;100953.94;4953869;28;8851;-75
2021/08/17 14:23:47;;;;;;;;;14.60;14.60;;;;;34.65;39.48;100959.63;4953918;28;8960;-75
2021/08/17 14:26:42;;;;;;;;;14.80;14.80;;;;;34.48;39.78;100954.34;4953054;28;8854;-75
2021/08/17 14:29:38;;;;;;;;;16.40;16.40;;;;;34.23;40.34;100961.38;4954336;28;8969;-75
2021/08/17 14:32:33;;;;;;;;;12.00;11.60;;;;;34.39;40.72;100956.47;4941052;29;8847;-75
2021/08/17 14:35:29;;;;;;;;;12.00;12.00;;;;;34.44;40.35;100948.03;4953656;29;8863;-76
2021/08/17 14:38:11;;;;;;;;;12.00;12.00;;;;;34.00;40.87;100956.44;4936910;29;8850;-76
2021/08/17 14:41:07;;;;;;;;;11.80;11.80;;;;;34.00;41.21;100953.56;4954007;28;9002;-76
2021/08/17 14:44:04;;;;;;;;;16.00;16.00;;;;;33.72;41.70;100952.88;4939824;29;8847;-75
2021/08/17 14:47:01;;;;;;;;;15.00;15.00;;;;;33.58;42.14;100944.97;4949726;28;8882;-74
2021/08/17 14:49:56;;;;;;;;;14.20;14.20;;;;;33.62;41.70;100940.69;4952145;29;8916;-75
2021/08/17 14:52:54;;;;;;;;;14.40;14.40;;;;;33.61;42.53;100944.81;4951224;29;8882;-77
2021/08/17 14:55:53;;;;;;;;;15.00;15.00;;;;;33.61;42.59;100936.22;4940368;29;8839;-76
2021/08/17 14:58:22;;;;;;;;;13.00;13.00;;;;;33.55;41.71;100938.16;4954266;29;8846;-74
2021/08/17 15:01:17;;;;;;;;;11.00;11.00;;;;;33.45;42.49;100933.75;4940144;29;8880;-75
2021/08/17 15:03:46;;;;;;;;;14.00;13.20;;;;;33.52;42.20;100936.28;4954248;29;8862;-75
2021/08/17 15:06:43;;;;;;;;;11.20;11.20;;;;;33.38;42.02;100936.97;4952909;29;8858;-76
2021/08/17 15:09:40;;;;;;;;;15.20;15.20;;;;;33.17;42.50;100927.28;4940436;29;8838;-75
2021/08/17 15:12:35;;;;;;;;;11.00;11.00;;;;;33.13;43.19;100932.41;4938696;28;8851;-75
2021/08/17 15:15:31;;;;;;;;;15.40;14.80;;;;;33.20;42.43;100923.44;4953562;28;8850;-75
2021/08/17 15:18:27;;;;;;;;;13.00;13.00;;;;;33.16;41.63;100928.56;4956199;28;8913;-75
2021/08/17 15:21:22;;;;;;;;;16.80;16.80;;;;;33.04;43.36;100926.69;4956292;28;8850;-75
2021/08/17 15:24:18;;;;;;;;;14.40;14.40;;;;;32.94;43.15;100933.72;4954582;28;8916;-76
2021/08/17 15:27:14;;;;;;;;;15.20;15.20;;;;;32.91;44.37;100924.81;4955860;28;8846;-75
2021/08/17 15:29:42;;;;;;;;;12.60;12.60;;;;;32.59;45.59;100929.13;4956170;28;9585;-75
2021/08/17 15:32:39;;;;;;;;;14.40;14.40;;;;;32.34;47.12;100927.38;4956879;28;8870;-75
2021/08/17 15:35:34;;;;;;;;;16.40;16.40;;;;;32.31;47.80;100924.66;4956630;28;8878;-74
2021/08/17 15:38:30;;;;;;;;;12.00;12.00;;;;;31.99;48.56;100934.63;4956346;28;8880;-75
2021/08/17 15:41:26;;;;;;;;;14.20;14.20;;;;;32.08;48.65;100932.56;4933219;28;8886;-73
2021/08/17 15:43:54;;;;;;;;;13.00;13.00;;;;;32.10;47.93;100929.22;4953695;28;8866;-73
2021/08/17 15:46:22;;;;;;;;;12.40;12.40;;;;;31.89;48.88;100930.13;4957153;28;9651;-76
2021/08/17 15:48:49;;;;;;;;;11.60;11.60;;;;;31.88;49.19;100932.22;4956759;28;9028;-72
2021/08/17 15:51:44;;;;;;;;;15.60;15.60;;;;;31.87;49.62;100936.34;4950479;28;8882;-75
2021/08/17 15:54:40;;;;;;;;;12.00;12.00;;;;;31.69;50.57;100936.28;4950752;28;8859;-75
2021/08/17 15:57:09;;;;;;;;;10.00;10.00;;;;;31.63;50.74;100932.44;4932172;29;8833;-75
2021/08/17 16:00:05;;;;;;;;;12.80;12.80;;;;;31.43;51.10;100941.41;4954522;28;8874;-74
2021/08/17 16:02:33;;;;;;;;;10.00;10.00;;;;;31.35;51.76;100932.31;4956653;28;8855;-74
2021/08/17 16:05:29;;;;;;;;;13.80;13.80;;;;;31.17;52.63;100932.19;4956314;28;8839;-75
2021/08/17 16:08:24;;;;;;;;;16.40;16.40;;;;;31.09;52.46;100933.75;4955641;28;8843;-75
2021/08/17 16:11:12;;;;;;;;;14.80;14.80;;;;;31.17;52.72;100930.13;4955707;28;8858;-75
2021/08/17 16:14:03;;;;;;;;;24.80;24.80;;;;;31.15;52.95;100926.16;4956132;28;8871;-75
2021/08/17 16:16:58;;;;;;;;;11.60;11.60;;;;;31.10;52.72;100932.47;4955339;28;8839;-74
2021/08/17 16:19:55;;;;;;;;;15.20;15.20;;;;;31.09;52.58;100939.47;4956573;28;8975;-75
2021/08/17 16:22:25;;;;;;;;;10.20;10.20;;;;;30.97;50.74;100941.13;4956592;28;8885;-75
2021/08/17 16:25:21;;;;;;;;;12.60;12.60;;;;;30.95;51.09;100946.50;4955110;28;8862;-74
2021/08/17 16:28:16;;;;;;;;;13.80;13.80;;;;;30.91;50.84;100940.16;4935650;29;8863;-74
2021/08/17 16:30:44;;;;;;;;;8.60;8.60;;;;;30.81;51.68;100947.03;4944159;28;8879;-73
2021/08/17 16:33:13;;;;;;;;;13.00;13.00;;;;;30.86;51.48;100932.19;4956417;28;9593;-74
2021/08/17 16:35:42;;;;;;;;;12.00;12.00;;;;;30.86;51.71;100935.03;4956695;28;8875;-73
2021/08/17 16:38:10;;;;;;;;;11.20;11.20;;;;;30.84;52.04;100929.00;4955409;28;8861;-74
2021/08/17 16:40:39;;;;;;;;;13.60;13.60;;;;;30.76;53.70;100933.38;4956582;28;8866;-74
2021/08/17 16:43:07;;;;;;;;;9.00;9.00;;;;;30.77;52.74;100930.06;4956161;28;8835;-75
2021/08/17 16:45:34;;;;;;;;;9.60;9.60;;;;;30.78;53.21;100937.34;4939253;28;8893;-75
2021/08/17 16:48:20;;;;;;;;;11.40;11.40;;;;;30.71;53.42;100929.84;4955879;28;8929;-75
2021/08/17 16:51:16;;;;;;;;;16.00;16.00;;;;;30.62;54.32;100929.75;4955271;28;8835;-76
2021/08/17 16:54:14;;;;;;;;;9.40;9.40;;;;;30.51;54.45;100920.00;4954694;28;8862;-75
2021/08/17 16:56:42;;;;;;;;;12.60;12.60;;;;;30.35;54.77;100930.31;4955222;28;8858;-75
2021/08/17 16:59:39;;;;;;;;;12.20;12.20;;;;;30.16;55.66;100932.22;4953899;28;8870;-75
2021/08/17 17:02:36;;;;;;;;;13.00;13.00;;;;;30.13;56.22;100935.97;4938099;28;8866;-75
2021/08/17 17:05:31;;;;;;;;;10.20;10.20;;;;;30.06;56.79;100932.53;4936940;28;8847;-75
2021/08/17 17:07:59;;;;;;;;;15.20;15.20;;;;;30.04;56.59;100935.88;4936913;28;8887;-76
2021/08/17 17:10:49;;;;;;;;;17.80;17.80;;;;;30.01;57.46;100936.78;4954704;28;8859;-76
2021/08/17 17:13:24;;;;;;;;;12.00;11.40;;;;;29.94;56.92;100939.09;4954037;28;8854;-76
2021/08/17 17:16:12;;;;;;;;;13.80;13.80;;;;;29.90;57.03;100942.03;4950486;29;8951;-74
2021/08/17 17:19:08;;;;;;;;;15.00;15.00;;;;;29.91;57.87;100946.53;4941679;28;8911;-74
2021/08/17 17:22:04;;;;;;;;;16.20;16.20;;;;;29.94;57.83;100956.19;4948569;28;8843;-74
2021/08/17 17:24:33;;;;;;;;;16.00;16.00;;;;;29.95;57.83;100960.63;4952150;28;8861;-74
2021/08/17 17:27:17;;;;;;;;;16.20;16.20;;;;;29.93;56.56;100958.25;4944625;28;8963;-74
2021/08/17 17:29:45;;;;;;;;;18.20;18.20;;;;;29.86;56.56;100964.97;4945606;28;9041;-75
2021/08/17 17:32:41;;;;;;;;;22.60;22.60;;;;;29.70;56.53;100970.03;4952060;28;8969;-75
2021/08/17 17:35:13;;;;;;;;;24.60;23.80;;;;;29.75;56.71;100967.41;4949314;28;8885;-74
2021/08/17 17:37:40;;;;;;;;;20.60;20.60;;;;;29.85;56.77;100974.00;4955544;28;8877;-74
2021/08/17 17:40:36;;;;;;;;;14.40;14.20;;;;;29.84;56.99;100966.72;4952643;28;8902;-74
2021/08/17 17:43:32;;;;;;;;;22.80;21.60;;;;;29.86;57.11;100975.59;4936936;29;8911;-74